Terminal Aerodrome Forecast
Issued by NWS

Home | Current Version | Previous Version | Graphics & Text | Print | Product List | Glossary On
Versions: 1 2 3 4 5 6 7 8 9 10 11 12 13 14 15 16 17 18
191
FTUS43 KBIS 081620 AAA
TAFJMS
TAF AMD
KJMS 081620Z 0816/0912 31020G28KT 3SM BLSN VCSH SCT008 BKN060
     FM082300 29013KT P6SM BKN035
     FM090200 31010KT P6SM BKN050=

USA.gov is the U.S. government's official web portal to all federal, state and local government web resources and services.